Time;durP1;ratioP1;P1;durP2;ratioP2;P2;SDS_P1;SDS_P2;PMS_P1;PMS_P2;Temp;Humidity;BMP_temperature;BMP_pressure;BME280_temperature;BME280_humidity;BME280_pressure;Samples;Min_cycle;Max_cycle;Signal;HPM_P1;HPM_P2
2023/01/08 00:02:00;;;;;;;4.32;3.70;;;;;;;;;;5052054;28;20203;-75
2023/01/08 00:04:26;;;;;;;4.95;4.45;;;;;;;;;;5033416;28;20182;-75
2023/01/08 00:06:52;;;;;;;5.85;3.80;;;;;;;;;;5051015;28;20110;-75
2023/01/08 00:09:18;;;;;;;7.20;4.30;;;;;;;;;;5049573;28;20069;-74
2023/01/08 00:11:45;;;;;;;4.63;4.15;;;;;;;;;;5049432;28;20495;-75
2023/01/08 00:14:11;;;;;;;5.07;3.90;;;;;;;;;;5036497;28;20048;-75
2023/01/08 00:16:37;;;;;;;4.75;3.88;;;;;;;;;;5050471;28;20044;-74
2023/01/08 00:19:03;;;;;;;3.80;3.15;;;;;;;;;;5033261;28;20051;-75
2023/01/08 00:21:29;;;;;;;4.25;3.45;;;;;;;;;;5051279;28;20605;-75
2023/01/08 00:23:55;;;;;;;5.05;3.28;;;;;;;;;;5053228;28;20039;-74
2023/01/08 00:26:22;;;;;;;4.20;3.47;;;;;;;;;;5053550;28;20045;-74
2023/01/08 00:28:48;;;;;;;3.72;3.17;;;;;;;;;;5051597;28;20226;-75
2023/01/08 00:31:14;;;;;;;4.03;3.63;;;;;;;;;;5053832;28;20148;-75
2023/01/08 00:33:40;;;;;;;6.88;3.63;;;;;;;;;;5052053;28;20055;-74
2023/01/08 00:36:07;;;;;;;3.80;3.50;;;;;;;;;;5046699;28;20052;-75
2023/01/08 00:38:33;;;;;;;5.45;3.60;;;;;;;;;;5044836;28;20075;-74
2023/01/08 00:40:59;;;;;;;5.32;3.03;;;;;;;;;;5047983;28;20055;-75
2023/01/08 00:43:25;;;;;;;3.45;3.08;;;;;;;;;;5050048;28;20406;-74
2023/01/08 00:45:52;;;;;;;4.18;3.40;;;;;;;;;;5034941;28;20106;-74
2023/01/08 00:48:19;;;;;;;4.97;3.38;;;;;;;;;;5027201;28;20515;-74
2023/01/08 00:50:45;;;;;;;3.88;2.92;;;;;;;;;;5053149;28;20092;-74
2023/01/08 00:53:11;;;;;;;4.75;3.67;;;;;;;;;;5056188;28;20185;-74
2023/01/08 00:55:37;;;;;;;3.53;2.90;;;;;;;;;;5043195;28;20078;-74
2023/01/08 00:58:03;;;;;;;6.47;3.08;;;;;;;;;;5051181;28;20602;-73
2023/01/08 01:00:30;;;;;;;4.55;3.38;;;;;;;;;;5040795;28;21727;-74
2023/01/08 01:02:57;;;;;;;3.72;3.08;;;;;;;;;;5053294;28;20052;-74
2023/01/08 01:05:23;;;;;;;4.38;3.15;;;;;;;;;;5051078;28;20061;-73
2023/01/08 01:07:49;;;;;;;3.95;3.15;;;;;;;;;;5052466;28;20128;-73
2023/01/08 01:10:16;;;;;;;3.90;3.45;;;;;;;;;;5051723;28;20179;-73
2023/01/08 01:12:42;;;;;;;8.13;3.20;;;;;;;;;;5049912;28;20448;-74
2023/01/08 01:15:09;;;;;;;4.53;3.42;;;;;;;;;;5052542;28;21623;-74
2023/01/08 01:17:38;;;;;;;4.90;3.75;;;;;;;;;;5049145;28;20036;-74
2023/01/08 01:20:05;;;;;;;6.82;3.70;;;;;;;;;;5050886;28;20044;-73
2023/01/08 01:22:31;;;;;;;4.20;3.47;;;;;;;;;;5057402;28;20699;-73
2023/01/08 01:24:57;;;;;;;5.13;3.55;;;;;;;;;;5052812;28;20044;-73
2023/01/08 01:27:24;;;;;;;4.45;3.22;;;;;;;;;;5052669;28;20075;-75
2023/01/08 01:29:50;;;;;;;3.78;3.42;;;;;;;;;;5059136;28;21719;-75
2023/01/08 01:32:16;;;;;;;4.82;3.58;;;;;;;;;;5064045;28;20158;-74
2023/01/08 01:34:42;;;;;;;7.53;3.28;;;;;;;;;;5077859;28;20071;-72
2023/01/08 01:37:10;;;;;;;4.47;3.33;;;;;;;;;;5053645;28;20497;-73
2023/01/08 01:39:36;;;;;;;4.05;3.08;;;;;;;;;;5056471;28;20139;-73
2023/01/08 01:42:02;;;;;;;2.85;2.55;;;;;;;;;;5054255;28;20381;-74
2023/01/08 01:44:46;;;;;;;7.85;2.88;;;;;;;;;;5025442;28;20075;-72
2023/01/08 01:47:15;;;;;;;4.40;2.90;;;;;;;;;;5050893;28;20040;-73
2023/01/08 01:49:43;;;;;;;4.43;2.75;;;;;;;;;;5039325;28;20074;-73
2023/01/08 01:52:09;;;;;;;5.85;2.72;;;;;;;;;;5052858;28;20135;-74
2023/01/08 01:54:35;;;;;;;3.40;2.33;;;;;;;;;;5039665;28;20044;-74
2023/01/08 01:57:02;;;;;;;4.25;2.90;;;;;;;;;;5035479;28;20048;-74
2023/01/08 01:59:28;;;;;;;2.88;2.45;;;;;;;;;;5054974;28;20135;-74
2023/01/08 02:01:55;;;;;;;4.57;2.70;;;;;;;;;;5050651;28;20088;-74
2023/01/08 02:04:21;;;;;;;2.92;2.63;;;;;;;;;;5035275;28;20056;-74
2023/01/08 02:06:47;;;;;;;4.50;2.92;;;;;;;;;;5049552;28;20448;-74
2023/01/08 02:09:14;;;;;;;6.07;3.08;;;;;;;;;;5039448;28;20055;-75
2023/01/08 02:11:40;;;;;;;3.13;2.67;;;;;;;;;;5033941;28;20206;-74
2023/01/08 02:14:20;;;;;;;4.00;3.15;;;;;;;;;;5051290;28;20056;-73
2023/01/08 02:16:55;;;;;;;5.65;3.30;;;;;;;;;;5036417;28;20627;-74
2023/01/08 02:19:40;;;;;;;3.65;3.13;;;;;;;;;;5049939;28;20568;-73
2023/01/08 02:22:25;;;;;;;3.83;2.50;;;;;;;;;;5039037;28;20615;-75
2023/01/08 02:24:53;;;;;;;6.72;3.30;;;;;;;;;;5049684;28;20591;-73
2023/01/08 02:27:20;;;;;;;3.67;2.80;;;;;;;;;;5047916;28;20048;-74
2023/01/08 02:29:47;;;;;;;5.40;2.60;;;;;;;;;;5049712;28;20047;-74
2023/01/08 02:32:13;;;;;;;4.18;2.85;;;;;;;;;;5045867;28;20106;-74
2023/01/08 02:34:40;;;;;;;5.25;2.80;;;;;;;;;;5052905;28;20421;-74
2023/01/08 02:37:09;;;;;;;4.70;2.90;;;;;;;;;;5048067;28;20104;-74
2023/01/08 02:39:54;;;;;;;6.10;2.47;;;;;;;;;;5052536;28;20068;-74
2023/01/08 02:42:35;;;;;;;5.18;2.55;;;;;;;;;;5051174;28;20040;-74
2023/01/08 02:45:10;;;;;;;9.75;2.95;;;;;;;;;;5037304;28;20148;-73
2023/01/08 02:47:51;;;;;;;4.50;2.70;;;;;;;;;;5051125;28;20054;-73
2023/01/08 02:50:26;;;;;;;3.55;2.20;;;;;;;;;;5051030;28;20048;-73
2023/01/08 02:52:55;;;;;;;6.60;2.08;;;;;;;;;;5044705;28;20803;-74
2023/01/08 02:55:23;;;;;;;6.07;2.15;;;;;;;;;;5050522;28;20045;-73
2023/01/08 02:57:49;;;;;;;6.30;1.92;;;;;;;;;;5051420;28;20040;-73
2023/01/08 03:00:15;;;;;;;10.35;2.10;;;;;;;;;;5036415;28;20126;-72
2023/01/08 03:02:42;;;;;;;6.40;1.80;;;;;;;;;;5048998;28;20041;-74
2023/01/08 03:05:23;;;;;;;7.88;1.83;;;;;;;;;;5067530;28;20063;-73
2023/01/08 03:07:49;;;;;;;7.38;1.77;;;;;;;;;;5048961;28;20036;-74
2023/01/08 03:10:15;;;;;;;4.97;1.50;;;;;;;;;;5031071;28;20438;-74
2023/01/08 03:12:45;;;;;;;9.32;1.80;;;;;;;;;;5052485;28;20162;-74
2023/01/08 03:15:13;;;;;;;6.72;1.50;;;;;;;;;;5063049;28;20052;-74
2023/01/08 03:17:43;;;;;;;11.05;2.25;;;;;;;;;;5071825;28;20099;-73
2023/01/08 03:20:11;;;;;;;8.07;2.08;;;;;;;;;;5076740;28;21525;-73
2023/01/08 03:22:40;;;;;;;9.82;2.17;;;;;;;;;;5035681;28;20052;-73
2023/01/08 03:25:06;;;;;;;12.63;2.33;;;;;;;;;;5047166;28;20048;-73
2023/01/08 03:27:34;;;;;;;8.00;1.95;;;;;;;;;;5048915;28;20117;-73
2023/01/08 03:30:01;;;;;;;10.13;2.15;;;;;;;;;;5050054;28;20052;-73
2023/01/08 03:32:29;;;;;;;8.60;2.03;;;;;;;;;;5054591;28;20044;-74
2023/01/08 03:34:56;;;;;;;8.10;2.00;;;;;;;;;;5051877;28;20055;-74
2023/01/08 03:37:24;;;;;;;10.55;2.80;;;;;;;;;;5048049;28;20056;-73
2023/01/08 03:39:59;;;;;;;10.65;1.98;;;;;;;;;;5050858;28;20142;-73
2023/01/08 03:42:26;;;;;;;9.27;1.75;;;;;;;;;;5048716;28;20067;-73
2023/01/08 03:44:52;;;;;;;12.02;2.80;;;;;;;;;;5034291;28;20043;-73
2023/01/08 03:47:19;;;;;;;11.25;1.85;;;;;;;;;;5051850;28;20036;-73
2023/01/08 03:49:46;;;;;;;7.90;1.77;;;;;;;;;;5055849;28;20130;-73
2023/01/08 03:52:25;;;;;;;6.78;1.40;;;;;;;;;;5035948;28;20048;-74
2023/01/08 03:54:52;;;;;;;11.82;2.03;;;;;;;;;;5057774;28;20044;-73
2023/01/08 03:57:18;;;;;;;8.25;2.00;;;;;;;;;;5036657;28;20040;-73
2023/01/08 03:59:44;;;;;;;9.88;2.42;;;;;;;;;;5057110;28;20067;-73
2023/01/08 04:02:10;;;;;;;11.13;2.08;;;;;;;;;;5056374;28;20067;-73
2023/01/08 04:04:36;;;;;;;8.55;1.58;;;;;;;;;;5054564;28;20045;-74
2023/01/08 04:07:03;;;;;;;4.32;1.67;;;;;;;;;;5025656;28;21036;-74
2023/01/08 04:09:29;;;;;;;7.28;1.77;;;;;;;;;;5034161;28;20055;-74
2023/01/08 04:11:55;;;;;;;9.45;1.77;;;;;;;;;;5052125;28;20059;-74
2023/01/08 04:14:21;;;;;;;10.15;2.25;;;;;;;;;;5049486;28;20145;-74
2023/01/08 04:16:47;;;;;;;7.93;1.80;;;;;;;;;;5052460;28;20404;-74
2023/01/08 04:19:13;;;;;;;15.38;2.08;;;;;;;;;;5053456;28;20047;-74
2023/01/08 04:21:40;;;;;;;9.63;1.85;;;;;;;;;;5034387;28;20044;-74
2023/01/08 04:24:06;;;;;;;6.93;2.20;;;;;;;;;;5052118;28;20400;-74
2023/01/08 04:26:32;;;;;;;7.72;1.98;;;;;;;;;;5053734;28;20036;-74
2023/01/08 04:28:58;;;;;;;12.98;1.92;;;;;;;;;;5036982;28;20453;-74
2023/01/08 04:31:24;;;;;;;10.90;2.03;;;;;;;;;;5034558;28;20048;-74
2023/01/08 04:33:51;;;;;;;14.38;2.70;;;;;;;;;;5034721;28;20492;-74
2023/01/08 04:36:17;;;;;;;8.35;2.40;;;;;;;;;;5034836;28;20043;-74
2023/01/08 04:38:43;;;;;;;11.65;2.22;;;;;;;;;;5034635;28;20135;-74
2023/01/08 04:41:09;;;;;;;10.27;2.90;;;;;;;;;;5058030;28;20070;-74
2023/01/08 04:43:36;;;;;;;12.38;2.45;;;;;;;;;;5065774;28;20063;-74
2023/01/08 04:46:03;;;;;;;8.93;2.30;;;;;;;;;;5055247;28;20040;-74
2023/01/08 04:48:30;;;;;;;12.65;2.35;;;;;;;;;;5051223;28;20488;-74
2023/01/08 04:51:00;;;;;;;10.18;2.72;;;;;;;;;;5049531;28;20328;-74
2023/01/08 04:53:26;;;;;;;14.82;2.65;;;;;;;;;;5050070;28;20176;-74
2023/01/08 04:55:53;;;;;;;8.13;2.20;;;;;;;;;;5030737;28;20087;-73
2023/01/08 04:58:19;;;;;;;10.65;2.45;;;;;;;;;;5053937;28;20044;-74
2023/01/08 05:00:45;;;;;;;10.70;2.38;;;;;;;;;;5052077;28;20048;-73
2023/01/08 05:03:11;;;;;;;13.10;3.20;;;;;;;;;;5066498;28;20258;-74
2023/01/08 05:05:38;;;;;;;4.95;2.13;;;;;;;;;;5078568;28;20058;-74
2023/01/08 05:08:04;;;;;;;6.95;2.92;;;;;;;;;;5052443;28;20091;-74
2023/01/08 05:10:30;;;;;;;5.05;2.83;;;;;;;;;;5051180;28;20067;-74
2023/01/08 05:12:59;;;;;;;5.45;2.92;;;;;;;;;;5050716;28;20051;-74
2023/01/08 05:15:26;;;;;;;7.43;3.30;;;;;;;;;;5050583;28;20036;-74
2023/01/08 05:18:03;;;;;;;7.18;2.90;;;;;;;;;;5032531;28;20488;-74
2023/01/08 05:20:29;;;;;;;5.80;3.95;;;;;;;;;;5056517;28;20068;-74
2023/01/08 05:22:57;;;;;;;5.60;3.42;;;;;;;;;;5032158;28;20044;-74
2023/01/08 05:25:23;;;;;;;7.80;3.50;;;;;;;;;;5051517;28;20082;-73
2023/01/08 05:27:49;;;;;;;8.07;3.42;;;;;;;;;;5067084;28;20449;-73
2023/01/08 05:30:16;;;;;;;5.05;3.00;;;;;;;;;;5020433;28;20084;-73
2023/01/08 05:32:42;;;;;;;6.35;3.72;;;;;;;;;;5048947;28;20055;-73
2023/01/08 05:35:08;;;;;;;7.40;3.10;;;;;;;;;;5051063;28;20683;-73
2023/01/08 05:37:35;;;;;;;6.60;2.83;;;;;;;;;;5053297;28;20806;-74
2023/01/08 05:40:02;;;;;;;7.10;2.97;;;;;;;;;;5057101;28;20043;-74
2023/01/08 05:42:28;;;;;;;5.90;2.90;;;;;;;;;;5054784;28;20044;-74
2023/01/08 05:44:54;;;;;;;6.43;3.15;;;;;;;;;;5050537;28;20044;-73
2023/01/08 05:47:21;;;;;;;5.47;2.78;;;;;;;;;;5055137;28;20548;-73
2023/01/08 05:49:47;;;;;;;7.22;2.58;;;;;;;;;;5037540;28;20051;-74
2023/01/08 05:52:13;;;;;;;4.95;2.88;;;;;;;;;;5053197;28;20040;-74
2023/01/08 05:54:39;;;;;;;6.78;2.78;;;;;;;;;;5038711;28;21798;-74
2023/01/08 05:57:05;;;;;;;5.75;2.92;;;;;;;;;;5052375;28;20047;-74
2023/01/08 05:59:31;;;;;;;6.05;2.67;;;;;;;;;;5043362;28;20049;-74
2023/01/08 06:01:57;;;;;;;7.97;2.55;;;;;;;;;;5051699;28;20094;-74
2023/01/08 06:04:23;;;;;;;5.97;2.55;;;;;;;;;;5039032;28;20140;-74
2023/01/08 06:06:50;;;;;;;5.43;2.65;;;;;;;;;;5067051;28;20103;-74
2023/01/08 06:09:16;;;;;;;4.70;2.38;;;;;;;;;;5045613;28;20036;-74
2023/01/08 06:11:42;;;;;;;5.18;2.40;;;;;;;;;;5035083;28;20040;-74
2023/01/08 06:14:08;;;;;;;6.38;2.45;;;;;;;;;;5049267;28;20043;-74
2023/01/08 06:16:34;;;;;;;5.03;2.20;;;;;;;;;;5030523;28;20067;-74
2023/01/08 06:19:00;;;;;;;7.15;3.20;;;;;;;;;;5050173;28;20944;-74
2023/01/08 06:21:26;;;;;;;4.85;2.20;;;;;;;;;;5049136;28;20131;-74
2023/01/08 06:23:52;;;;;;;5.20;2.15;;;;;;;;;;5035354;28;20099;-74
2023/01/08 06:26:18;;;;;;;5.53;2.10;;;;;;;;;;5049605;28;20208;-74
2023/01/08 06:28:44;;;;;;;6.15;2.22;;;;;;;;;;5051961;28;20052;-74
2023/01/08 06:31:10;;;;;;;5.60;2.20;;;;;;;;;;5051451;28;20049;-74
2023/01/08 06:33:36;;;;;;;5.38;2.40;;;;;;;;;;5046931;28;20152;-74
2023/01/08 06:36:03;;;;;;;5.60;2.10;;;;;;;;;;5053331;28;20659;-74
2023/01/08 06:38:34;;;;;;;3.28;1.77;;;;;;;;;;5053984;28;20067;-74
2023/01/08 06:41:07;;;;;;;3.97;2.03;;;;;;;;;;5056228;28;20048;-74
2023/01/08 06:43:33;;;;;;;9.30;2.63;;;;;;;;;;5081522;28;20056;-74
2023/01/08 06:46:00;;;;;;;4.78;2.17;;;;;;;;;;5080736;28;20100;-73
2023/01/08 06:48:26;;;;;;;10.02;2.55;;;;;;;;;;5046939;28;20079;-74
2023/01/08 06:50:52;;;;;;;5.47;1.88;;;;;;;;;;5052752;28;20040;-74
2023/01/08 06:53:18;;;;;;;4.18;2.65;;;;;;;;;;5051546;28;20044;-74
2023/01/08 06:55:44;;;;;;;5.78;2.13;;;;;;;;;;5034774;28;20384;-74
2023/01/08 06:58:11;;;;;;;6.50;2.38;;;;;;;;;;5052237;28;20050;-74
2023/01/08 07:00:37;;;;;;;3.50;2.22;;;;;;;;;;5037555;28;20907;-74
2023/01/08 07:03:03;;;;;;;6.88;2.35;;;;;;;;;;5037882;28;20048;-74
2023/01/08 07:05:30;;;;;;;6.63;2.72;;;;;;;;;;5049108;28;20744;-72
2023/01/08 07:07:56;;;;;;;5.95;3.38;;;;;;;;;;5049166;28;20043;-72
2023/01/08 07:10:22;;;;;;;5.55;2.72;;;;;;;;;;5051124;28;20098;-73
2023/01/08 07:12:48;;;;;;;5.60;2.50;;;;;;;;;;5050534;28;20499;-73
2023/01/08 07:15:15;;;;;;;6.28;2.92;;;;;;;;;;5048273;28;21295;-73
2023/01/08 07:17:41;;;;;;;7.07;2.63;;;;;;;;;;5047128;28;20037;-74
2023/01/08 07:20:08;;;;;;;8.00;3.35;;;;;;;;;;5051980;28;20044;-75
2023/01/08 07:22:34;;;;;;;5.32;2.58;;;;;;;;;;5050697;28;20362;-74
2023/01/08 07:25:00;;;;;;;6.00;2.70;;;;;;;;;;5033248;28;20172;-74
2023/01/08 07:27:26;;;;;;;10.20;3.00;;;;;;;;;;5047100;28;21297;-74
2023/01/08 07:29:54;;;;;;;6.40;2.95;;;;;;;;;;5035535;28;20043;-74
2023/01/08 07:32:20;;;;;;;4.32;2.35;;;;;;;;;;5032073;28;20048;-74
2023/01/08 07:34:47;;;;;;;6.80;3.03;;;;;;;;;;5051945;28;20661;-75
2023/01/08 07:37:13;;;;;;;6.47;3.17;;;;;;;;;;5025129;28;20048;-75
2023/01/08 07:39:39;;;;;;;8.18;3.15;;;;;;;;;;5049544;28;20058;-75
2023/01/08 07:42:05;;;;;;;9.55;3.42;;;;;;;;;;5055076;28;20450;-75
2023/01/08 07:44:31;;;;;;;7.95;2.90;;;;;;;;;;5051053;28;20807;-75
2023/01/08 07:46:57;;;;;;;5.95;3.13;;;;;;;;;;5017900;28;20641;-75
2023/01/08 07:49:23;;;;;;;5.63;3.40;;;;;;;;;;5048955;28;20036;-75
2023/01/08 07:51:49;;;;;;;7.10;3.25;;;;;;;;;;5034469;28;20050;-74
2023/01/08 07:54:15;;;;;;;9.63;3.20;;;;;;;;;;5029476;28;21554;-74
2023/01/08 07:56:41;;;;;;;7.13;2.78;;;;;;;;;;5043114;28;20036;-76
2023/01/08 07:59:07;;;;;;;11.38;3.88;;;;;;;;;;5041634;28;20051;-74
2023/01/08 08:01:33;;;;;;;7.75;3.28;;;;;;;;;;5048499;28;20139;-74
2023/01/08 08:03:59;;;;;;;8.43;3.45;;;;;;;;;;5048756;28;20485;-72
2023/01/08 08:06:26;;;;;;;7.25;3.00;;;;;;;;;;5045659;28;20129;-73
2023/01/08 08:08:52;;;;;;;7.93;2.80;;;;;;;;;;5044944;28;21699;-73
2023/01/08 08:11:18;;;;;;;8.68;3.15;;;;;;;;;;5043130;28;20076;-73
2023/01/08 08:13:46;;;;;;;9.00;3.17;;;;;;;;;;5032819;28;20082;-74
2023/01/08 08:16:12;;;;;;;8.13;2.53;;;;;;;;;;5035323;28;20044;-74
2023/01/08 08:18:38;;;;;;;8.05;3.08;;;;;;;;;;5055680;28;20084;-73
2023/01/08 08:21:05;;;;;;;8.02;2.35;;;;;;;;;;5073412;28;20120;-73
2023/01/08 08:23:31;;;;;;;7.97;2.92;;;;;;;;;;5061714;28;20074;-74
2023/01/08 08:25:57;;;;;;;6.93;2.95;;;;;;;;;;5075597;28;20733;-73
2023/01/08 08:28:23;;;;;;;8.77;3.40;;;;;;;;;;5048851;28;20109;-73
2023/01/08 08:30:50;;;;;;;10.98;3.63;;;;;;;;;;5049026;28;20051;-74
2023/01/08 08:33:16;;;;;;;7.32;3.92;;;;;;;;;;5046077;28;20048;-74
2023/01/08 08:35:47;;;;;;;6.85;3.63;;;;;;;;;;5032751;28;20055;-73
2023/01/08 08:38:13;;;;;;;9.05;3.60;;;;;;;;;;5048120;28;20084;-73
2023/01/08 08:40:39;;;;;;;9.25;3.70;;;;;;;;;;5050501;28;20127;-73
2023/01/08 08:43:05;;;;;;;8.18;2.92;;;;;;;;;;5037299;28;20066;-74
2023/01/08 08:45:31;;;;;;;6.07;2.97;;;;;;;;;;5036386;28;21104;-73
2023/01/08 08:47:57;;;;;;;9.23;3.65;;;;;;;;;;5040856;28;20103;-73
2023/01/08 08:50:24;;;;;;;20.95;4.15;;;;;;;;;;5049772;28;20238;-74
2023/01/08 08:52:50;;;;;;;6.13;3.35;;;;;;;;;;5053594;28;20488;-74
2023/01/08 08:55:16;;;;;;;7.65;3.70;;;;;;;;;;5042940;28;20075;-73
2023/01/08 08:57:43;;;;;;;12.63;4.05;;;;;;;;;;5035405;28;20043;-74
2023/01/08 09:00:10;;;;;;;5.30;3.30;;;;;;;;;;5052048;28;20083;-73
2023/01/08 09:02:36;;;;;;;9.18;3.50;;;;;;;;;;5053130;28;20134;-74
2023/01/08 09:05:02;;;;;;;10.02;4.22;;;;;;;;;;5053765;28;20060;-74
2023/01/08 09:07:28;;;;;;;9.18;3.65;;;;;;;;;;5068262;28;20048;-73
2023/01/08 09:09:54;;;;;;;9.45;3.28;;;;;;;;;;5050756;28;20752;-73
2023/01/08 09:12:20;;;;;;;9.40;3.35;;;;;;;;;;5054828;28;20155;-74
2023/01/08 09:14:49;;;;;;;11.60;3.40;;;;;;;;;;5036694;28;20416;-74
2023/01/08 09:17:15;;;;;;;13.98;3.22;;;;;;;;;;5037347;28;20067;-74
2023/01/08 09:19:41;;;;;;;8.05;3.17;;;;;;;;;;5054742;28;20156;-74
2023/01/08 09:22:07;;;;;;;10.38;3.53;;;;;;;;;;5049227;28;20052;-74
2023/01/08 09:24:33;;;;;;;7.88;3.00;;;;;;;;;;5054365;28;20044;-74
2023/01/08 09:26:59;;;;;;;6.38;3.05;;;;;;;;;;5050746;28;20559;-74
2023/01/08 09:29:25;;;;;;;6.63;2.80;;;;;;;;;;5071478;28;20105;-74
2023/01/08 09:31:51;;;;;;;10.02;3.08;;;;;;;;;;5051724;28;20123;-74
2023/01/08 09:34:17;;;;;;;7.00;3.17;;;;;;;;;;5036969;28;20152;-74
2023/01/08 09:36:44;;;;;;;7.80;2.63;;;;;;;;;;5033573;28;20051;-74
2023/01/08 09:39:10;;;;;;;9.50;3.28;;;;;;;;;;5052886;28;20040;-74
2023/01/08 09:41:41;;;;;;;12.93;3.05;;;;;;;;;;5040261;28;20040;-74
2023/01/08 09:44:07;;;;;;;7.95;2.83;;;;;;;;;;5051022;28;20036;-74
2023/01/08 09:46:34;;;;;;;7.95;3.42;;;;;;;;;;5050657;28;20044;-73
2023/01/08 09:49:03;;;;;;;11.02;2.70;;;;;;;;;;5051611;28;20168;-74
2023/01/08 09:51:37;;;;;;;9.60;2.60;;;;;;;;;;5038930;28;20048;-74
2023/01/08 09:54:06;;;;;;;7.80;2.85;;;;;;;;;;5055342;28;20128;-74
2023/01/08 09:56:33;;;;;;;10.23;2.70;;;;;;;;;;5050239;28;20050;-73
2023/01/08 09:59:00;;;;;;;10.68;2.25;;;;;;;;;;5085483;28;20119;-74
2023/01/08 10:01:31;;;;;;;6.28;2.53;;;;;;;;;;5074879;28;20063;-75
2023/01/08 10:04:03;;;;;;;13.32;2.78;;;;;;;;;;5051333;28;20075;-75
2023/01/08 10:06:30;;;;;;;11.07;2.05;;;;;;;;;;5033487;28;20059;-75
2023/01/08 10:08:56;;;;;;;13.15;2.22;;;;;;;;;;5063621;28;20035;-74
2023/01/08 10:11:23;;;;;;;11.70;2.45;;;;;;;;;;5051378;28;20055;-73
2023/01/08 10:13:52;;;;;;;5.80;2.25;;;;;;;;;;5032750;28;20206;-73
2023/01/08 10:16:44;;;;;;;10.27;2.58;;;;;;;;;;5051565;28;20039;-73
2023/01/08 10:19:10;;;;;;;7.18;2.45;;;;;;;;;;5049090;28;20052;-73
2023/01/08 10:21:39;;;;;;;9.02;2.35;;;;;;;;;;5067259;27;20055;-74
2023/01/08 10:24:05;;;;;;;7.05;2.13;;;;;;;;;;5051086;28;20153;-73
2023/01/08 10:26:36;;;;;;;6.30;2.17;;;;;;;;;;5049916;28;20750;-74
2023/01/08 10:29:11;;;;;;;8.15;2.63;;;;;;;;;;5045386;28;20051;-73
2023/01/08 10:31:47;;;;;;;9.50;2.25;;;;;;;;;;5047895;28;20055;-74
2023/01/08 10:34:23;;;;;;;6.90;1.58;;;;;;;;;;5047705;28;20101;-74
2023/01/08 10:36:50;;;;;;;10.82;2.25;;;;;;;;;;5037356;28;20311;-73
2023/01/08 10:39:22;;;;;;;8.73;2.03;;;;;;;;;;5049840;28;20036;-73
2023/01/08 10:41:52;;;;;;;7.78;1.50;;;;;;;;;;5050293;28;20048;-73
2023/01/08 10:44:19;;;;;;;9.32;2.08;;;;;;;;;;5055086;28;20075;-74
2023/01/08 10:46:47;;;;;;;4.70;1.60;;;;;;;;;;5052498;28;20093;-74
2023/01/08 10:49:33;;;;;;;12.45;2.13;;;;;;;;;;5051083;28;20050;-74
2023/01/08 10:52:00;;;;;;;8.88;2.40;;;;;;;;;;5052462;28;20049;-73
2023/01/08 10:54:32;;;;;;;9.85;2.10;;;;;;;;;;5051813;28;21071;-73
2023/01/08 10:56:58;;;;;;;7.75;2.13;;;;;;;;;;5050395;28;20360;-73
2023/01/08 10:59:25;;;;;;;9.00;1.75;;;;;;;;;;5049569;28;20032;-74
2023/01/08 11:01:56;;;;;;;10.93;2.72;;;;;;;;;;5053415;28;20058;-73
2023/01/08 11:04:32;;;;;;;11.65;2.33;;;;;;;;;;5052205;28;20527;-73
2023/01/08 11:07:02;;;;;;;5.38;2.13;;;;;;;;;;5048315;28;20102;-73
2023/01/08 11:09:33;;;;;;;10.55;2.00;;;;;;;;;;5050149;28;20047;-73
2023/01/08 11:11:59;;;;;;;7.25;1.67;;;;;;;;;;5049508;28;20182;-74
2023/01/08 11:14:25;;;;;;;13.38;2.85;;;;;;;;;;5065903;28;20161;-73
2023/01/08 11:16:52;;;;;;;10.27;2.63;;;;;;;;;;5051567;28;20054;-73
2023/01/08 11:19:39;;;;;;;8.05;1.67;;;;;;;;;;5044809;28;20067;-73
2023/01/08 11:22:08;;;;;;;11.45;2.05;;;;;;;;;;5029457;28;20242;-75
2023/01/08 11:24:38;;;;;;;8.02;2.15;;;;;;;;;;5046471;28;20048;-74
2023/01/08 11:27:09;;;;;;;11.65;2.67;;;;;;;;;;5048889;28;20050;-74
2023/01/08 11:29:37;;;;;;;13.10;2.88;;;;;;;;;;5032472;28;20048;-74
2023/01/08 11:32:03;;;;;;;12.75;2.30;;;;;;;;;;5051527;28;20047;-75
2023/01/08 11:34:45;;;;;;;6.80;2.05;;;;;;;;;;5030863;28;20055;-75
2023/01/08 11:37:19;;;;;;;10.50;1.80;;;;;;;;;;5065403;28;20730;-75
2023/01/08 11:39:45;;;;;;;;;;;;;;;;;;5075869;28;20033;-74
2023/01/08 11:42:20;;;;;;;10.18;2.05;;;;;;;;;;5066170;28;19963;-75
2023/01/08 11:44:54;;;;;;;12.52;2.40;;;;;;;;;;5049554;28;20131;-74
2023/01/08 11:47:31;;;;;;;12.00;2.00;;;;;;;;;;5050943;28;20121;-74
2023/01/08 11:50:36;;;;;;;9.95;1.88;;;;;;;;;;5032607;28;20048;-73
2023/01/08 11:53:05;;;;;;;15.10;2.70;;;;;;;;;;4994054;28;20429;-73
2023/01/08 11:55:34;;;;;;;14.77;2.47;;;;;;;;;;4975553;28;20050;-74
2023/01/08 11:58:03;;;;;;;7.93;2.05;;;;;;;;;;5014440;28;20135;-74
2023/01/08 12:00:29;;;;;;;8.73;2.13;;;;;;;;;;5037547;28;20040;-74
2023/01/08 12:03:00;;;;;;;10.52;1.90;;;;;;;;;;5054825;28;21764;-75
2023/01/08 12:05:28;;;;;;;9.30;2.28;;;;;;;;;;5053851;28;20143;-74
2023/01/08 12:08:03;;;;;;;13.82;2.53;;;;;;;;;;5051118;28;20058;-75
2023/01/08 12:10:51;;;;;;;13.50;2.00;;;;;;;;;;5053756;28;20181;-74
2023/01/08 12:13:23;;;;;;;12.38;2.50;;;;;;;;;;5058972;28;20146;-75
2023/01/08 12:15:55;;;;;;;11.25;2.15;;;;;;;;;;5057122;28;20112;-76
2023/01/08 12:18:24;;;;;;;10.07;2.25;;;;;;;;;;5048077;28;20042;-76
2023/01/08 12:20:57;;;;;;;6.93;1.73;;;;;;;;;;5057447;28;20064;-76
2023/01/08 12:23:29;;;;;;;10.40;2.22;;;;;;;;;;5040014;28;20047;-75
2023/01/08 12:26:03;;;;;;;14.98;2.65;;;;;;;;;;5047628;28;20036;-76
2023/01/08 12:28:29;;;;;;;;;;;;;;;;;;5048557;28;20078;-76
2023/01/08 12:31:18;;;;;;;9.35;2.05;;;;;;;;;;5056934;28;19986;-76
2023/01/08 12:33:47;;;;;;;16.95;2.35;;;;;;;;;;5043757;28;20054;-76
2023/01/08 12:36:15;;;;;;;11.15;2.70;;;;;;;;;;5047950;28;20089;-76
2023/01/08 12:38:43;;;;;;;11.32;2.58;;;;;;;;;;5052480;28;20492;-76
2023/01/08 12:41:11;;;;;;;15.35;2.60;;;;;;;;;;5041886;28;20075;-76
2023/01/08 12:43:40;;;;;;;11.57;2.97;;;;;;;;;;5058586;28;20144;-76
2023/01/08 12:46:06;;;;;;;6.18;1.98;;;;;;;;;;5058257;28;20681;-76
2023/01/08 12:48:35;;;;;;;10.40;2.70;;;;;;;;;;5042299;28;20117;-76
2023/01/08 12:51:23;;;;;;;11.13;3.03;;;;;;;;;;5045599;28;20050;-76
2023/01/08 12:54:02;;;;;;;12.90;3.35;;;;;;;;;;5055738;28;20440;-75
2023/01/08 12:56:30;;;;;;;13.75;2.90;;;;;;;;;;5045247;28;20052;-76
2023/01/08 12:59:08;;;;;;;9.63;2.58;;;;;;;;;;5056118;28;20063;-76
2023/01/08 13:01:50;;;;;;;14.10;2.80;;;;;;;;;;5057895;28;20041;-75
2023/01/08 13:04:17;;;;;;;7.72;2.70;;;;;;;;;;5044551;28;20603;-74
2023/01/08 13:06:50;;;;;;;11.75;2.47;;;;;;;;;;5044332;28;20063;-74
2023/01/08 13:09:22;;;;;;;16.88;3.70;;;;;;;;;;5047018;28;20040;-75
2023/01/08 13:11:53;;;;;;;13.05;4.40;;;;;;;;;;5048555;28;20066;-75
2023/01/08 13:14:20;;;;;;;18.30;5.25;;;;;;;;;;5059723;28;20073;-74
2023/01/08 13:16:46;;;;;;;10.00;2.58;;;;;;;;;;5053474;28;21641;-75
2023/01/08 13:19:26;;;;;;;10.93;3.50;;;;;;;;;;5069087;28;20040;-75
2023/01/08 13:21:54;;;;;;;8.82;1.90;;;;;;;;;;5083890;28;20048;-74
2023/01/08 13:24:29;;;;;;;12.65;4.78;;;;;;;;;;5062926;28;20040;-76
2023/01/08 13:26:56;;;;;;;5.13;1.77;;;;;;;;;;5060068;28;20493;-76
2023/01/08 13:29:36;;;;;;;9.63;2.50;;;;;;;;;;5060243;28;20040;-76
2023/01/08 13:32:02;;;;;;;13.52;2.88;;;;;;;;;;5041716;28;20090;-76
2023/01/08 13:34:40;;;;;;;9.63;2.78;;;;;;;;;;5057961;28;20044;-76
2023/01/08 13:37:07;;;;;;;12.20;3.15;;;;;;;;;;5059585;28;20119;-76
2023/01/08 13:39:34;;;;;;;11.90;3.33;;;;;;;;;;5059116;28;20059;-75
2023/01/08 13:42:21;;;;;;;9.32;2.53;;;;;;;;;;5076029;28;20476;-75
2023/01/08 13:44:51;;;;;;;10.70;2.72;;;;;;;;;;5060526;28;20108;-75
2023/01/08 13:47:30;;;;;;;17.73;2.85;;;;;;;;;;5076470;28;20814;-76
2023/01/08 13:49:56;;;;;;;11.40;2.95;;;;;;;;;;5059607;28;20048;-76
2023/01/08 13:52:25;;;;;;;14.30;2.92;;;;;;;;;;5060594;28;20047;-75
2023/01/08 13:54:52;;;;;;;17.65;3.03;;;;;;;;;;5058659;28;21400;-76
2023/01/08 13:57:19;;;;;;;12.80;3.13;;;;;;;;;;5049679;28;20055;-75
2023/01/08 13:59:51;;;;;;;13.80;2.30;;;;;;;;;;5042068;28;20044;-75
2023/01/08 14:02:22;;;;;;;8.57;2.10;;;;;;;;;;5045362;28;20170;-75
2023/01/08 14:04:49;;;;;;;17.30;2.88;;;;;;;;;;5058877;28;20373;-75
2023/01/08 14:07:15;;;;;;;16.17;2.70;;;;;;;;;;5060127;28;20070;-75
2023/01/08 14:09:41;;;;;;;12.18;2.38;;;;;;;;;;5059487;28;20044;-75
2023/01/08 14:12:13;;;;;;;14.55;2.58;;;;;;;;;;5059256;28;20040;-75
2023/01/08 14:14:39;;;;;;;14.40;2.50;;;;;;;;;;5042456;28;20040;-76
2023/01/08 14:17:10;;;;;;;11.93;2.78;;;;;;;;;;5062288;28;20059;-76
2023/01/08 14:19:36;;;;;;;13.95;2.20;;;;;;;;;;5060345;28;20507;-76
2023/01/08 14:22:02;;;;;;;7.53;1.85;;;;;;;;;;5066108;28;20032;-76
2023/01/08 14:24:29;;;;;;;8.80;2.60;;;;;;;;;;5058014;28;20698;-76
2023/01/08 14:26:56;;;;;;;8.32;1.88;;;;;;;;;;5060288;28;20044;-75
2023/01/08 14:29:24;;;;;;;13.68;2.53;;;;;;;;;;5059636;28;20054;-75
2023/01/08 14:31:54;;;;;;;11.70;2.60;;;;;;;;;;5066985;28;20067;-74
2023/01/08 14:34:21;;;;;;;18.23;2.47;;;;;;;;;;5054671;28;20055;-76
2023/01/08 14:36:50;;;;;;;7.82;2.35;;;;;;;;;;5047047;28;20078;-76
2023/01/08 14:39:33;;;;;;;8.65;2.15;;;;;;;;;;5059810;28;20060;-75
2023/01/08 14:45:01;;;;;;;8.73;3.00;;;;;;;;;;5057011;28;22000;-76
2023/01/08 14:47:30;;;;;;;14.35;3.85;;;;;;;;;;5060049;28;20037;-76
2023/01/08 14:49:56;;;;;;;9.52;2.67;;;;;;;;;;5059402;28;20054;-75
2023/01/08 14:52:22;;;;;;;11.57;2.30;;;;;;;;;;5043373;28;20075;-75